sensor_id;sensor_type;location;lat;lon;timestamp;P1;durP1;ratioP1;P2;durP2;ratioP2
20832;SDS011;56075;51.264;7.150;2022-12-18T00:01:46;7.33;;;3.30;;
20832;SDS011;56075;51.264;7.150;2022-12-18T00:04:20;7.10;;;2.60;;
20832;SDS011;56075;51.264;7.150;2022-12-18T00:06:52;9.43;;;3.60;;
20832;SDS011;56075;51.264;7.150;2022-12-18T00:09:24;8.37;;;2.47;;
20832;SDS011;56075;51.264;7.150;2022-12-18T00:11:55;5.07;;;2.43;;
20832;SDS011;56075;51.264;7.150;2022-12-18T00:14:27;5.00;;;2.37;;
20832;SDS011;56075;51.264;7.150;2022-12-18T00:16:58;7.70;;;2.53;;
20832;SDS011;56075;51.264;7.150;2022-12-18T00:19:31;8.83;;;2.90;;
20832;SDS011;56075;51.264;7.150;2022-12-18T00:22:02;7.77;;;2.53;;
20832;SDS011;56075;51.264;7.150;2022-12-18T00:24:34;5.33;;;2.40;;
20832;SDS011;56075;51.264;7.150;2022-12-18T00:27:05;8.63;;;2.73;;
20832;SDS011;56075;51.264;7.150;2022-12-18T00:29:37;7.10;;;2.50;;
20832;SDS011;56075;51.264;7.150;2022-12-18T00:32:08;7.77;;;2.77;;
20832;SDS011;56075;51.264;7.150;2022-12-18T00:34:40;5.97;;;2.67;;
20832;SDS011;56075;51.264;7.150;2022-12-18T00:37:13;6.30;;;2.50;;
20832;SDS011;56075;51.264;7.150;2022-12-18T00:39:44;8.87;;;3.07;;
20832;SDS011;56075;51.264;7.150;2022-12-18T00:42:15;8.17;;;2.97;;
20832;SDS011;56075;51.264;7.150;2022-12-18T00:45:07;8.00;;;2.60;;
20832;SDS011;56075;51.264;7.150;2022-12-18T00:47:39;6.43;;;2.83;;
20832;SDS011;56075;51.264;7.150;2022-12-18T00:50:11;7.03;;;2.93;;
20832;SDS011;56075;51.264;7.150;2022-12-18T00:52:43;7.57;;;2.70;;
20832;SDS011;56075;51.264;7.150;2022-12-18T00:55:14;6.93;;;2.60;;
20832;SDS011;56075;51.264;7.150;2022-12-18T00:57:46;8.37;;;2.93;;
20832;SDS011;56075;51.264;7.150;2022-12-18T01:00:18;7.07;;;2.90;;
20832;SDS011;56075;51.264;7.150;2022-12-18T01:02:49;8.03;;;3.00;;
20832;SDS011;56075;51.264;7.150;2022-12-18T01:05:24;8.10;;;2.50;;
20832;SDS011;56075;51.264;7.150;2022-12-18T01:07:57;8.43;;;3.40;;
20832;SDS011;56075;51.264;7.150;2022-12-18T01:10:28;10.80;;;3.10;;
20832;SDS011;56075;51.264;7.150;2022-12-18T01:13:01;8.37;;;2.80;;
20832;SDS011;56075;51.264;7.150;2022-12-18T01:15:33;5.27;;;2.40;;
20832;SDS011;56075;51.264;7.150;2022-12-18T01:18:04;6.53;;;2.73;;
20832;SDS011;56075;51.264;7.150;2022-12-18T01:20:37;9.77;;;3.00;;
20832;SDS011;56075;51.264;7.150;2022-12-18T01:23:09;10.17;;;2.80;;
20832;SDS011;56075;51.264;7.150;2022-12-18T01:25:41;6.93;;;2.90;;
20832;SDS011;56075;51.264;7.150;2022-12-18T01:30:50;6.40;;;2.63;;
20832;SDS011;56075;51.264;7.150;2022-12-18T01:33:23;7.40;;;3.00;;
20832;SDS011;56075;51.264;7.150;2022-12-18T01:35:55;6.07;;;2.80;;
20832;SDS011;56075;51.264;7.150;2022-12-18T01:38:28;8.47;;;2.83;;
20832;SDS011;56075;51.264;7.150;2022-12-18T01:41:00;7.10;;;2.67;;
20832;SDS011;56075;51.264;7.150;2022-12-18T01:46:13;8.97;;;3.00;;
20832;SDS011;56075;51.264;7.150;2022-12-18T01:48:45;6.10;;;3.00;;
20832;SDS011;56075;51.264;7.150;2022-12-18T01:51:17;5.63;;;2.57;;
20832;SDS011;56075;51.264;7.150;2022-12-18T01:53:49;10.13;;;3.27;;
20832;SDS011;56075;51.264;7.150;2022-12-18T01:56:21;11.13;;;3.80;;
20832;SDS011;56075;51.264;7.150;2022-12-18T01:58:56;8.53;;;3.27;;
20832;SDS011;56075;51.264;7.150;2022-12-18T02:01:30;8.40;;;3.40;;
20832;SDS011;56075;51.264;7.150;2022-12-18T02:04:18;9.77;;;3.27;;
20832;SDS011;56075;51.264;7.150;2022-12-18T02:06:54;9.37;;;3.13;;
20832;SDS011;56075;51.264;7.150;2022-12-18T02:09:29;7.67;;;2.53;;
20832;SDS011;56075;51.264;7.150;2022-12-18T02:12:10;4.97;;;2.30;;
20832;SDS011;56075;51.264;7.150;2022-12-18T02:15:03;8.00;;;2.80;;
20832;SDS011;56075;51.264;7.150;2022-12-18T02:17:43;6.33;;;2.73;;
20832;SDS011;56075;51.264;7.150;2022-12-18T02:20:19;5.77;;;2.30;;
20832;SDS011;56075;51.264;7.150;2022-12-18T02:23:22;8.70;;;2.83;;
20832;SDS011;56075;51.264;7.150;2022-12-18T02:28:40;8.70;;;2.97;;
20832;SDS011;56075;51.264;7.150;2022-12-18T02:31:14;8.17;;;2.47;;
20832;SDS011;56075;51.264;7.150;2022-12-18T02:33:47;6.33;;;2.40;;
20832;SDS011;56075;51.264;7.150;2022-12-18T02:36:20;5.40;;;1.97;;
20832;SDS011;56075;51.264;7.150;2022-12-18T02:38:53;4.50;;;2.13;;
20832;SDS011;56075;51.264;7.150;2022-12-18T02:41:25;6.10;;;2.33;;
20832;SDS011;56075;51.264;7.150;2022-12-18T02:44:01;7.97;;;2.83;;
20832;SDS011;56075;51.264;7.150;2022-12-18T02:46:38;7.67;;;2.80;;
20832;SDS011;56075;51.264;7.150;2022-12-18T02:49:33;9.47;;;2.90;;
20832;SDS011;56075;51.264;7.150;2022-12-18T02:57:19;9.30;;;3.50;;
20832;SDS011;56075;51.264;7.150;2022-12-18T03:05:37;7.13;;;2.77;;
20832;SDS011;56075;51.264;7.150;2022-12-18T03:08:12;7.53;;;2.60;;
20832;SDS011;56075;51.264;7.150;2022-12-18T03:10:51;8.27;;;3.23;;
20832;SDS011;56075;51.264;7.150;2022-12-18T03:13:31;8.10;;;3.10;;
20832;SDS011;56075;51.264;7.150;2022-12-18T03:16:05;8.90;;;3.20;;
20832;SDS011;56075;51.264;7.150;2022-12-18T03:21:09;6.83;;;3.07;;
20832;SDS011;56075;51.264;7.150;2022-12-18T03:23:44;7.27;;;3.10;;
20832;SDS011;56075;51.264;7.150;2022-12-18T03:26:22;8.10;;;3.50;;
20832;SDS011;56075;51.264;7.150;2022-12-18T03:28:59;8.43;;;3.07;;
20832;SDS011;56075;51.264;7.150;2022-12-18T03:31:39;5.80;;;2.60;;
20832;SDS011;56075;51.264;7.150;2022-12-18T03:34:13;8.37;;;3.00;;
20832;SDS011;56075;51.264;7.150;2022-12-18T03:36:49;7.93;;;2.73;;
20832;SDS011;56075;51.264;7.150;2022-12-18T03:39:22;10.03;;;3.60;;
20832;SDS011;56075;51.264;7.150;2022-12-18T03:53:09;7.73;;;2.90;;
20832;SDS011;56075;51.264;7.150;2022-12-18T03:55:52;8.57;;;3.10;;
20832;SDS011;56075;51.264;7.150;2022-12-18T03:58:25;7.30;;;2.40;;
20832;SDS011;56075;51.264;7.150;2022-12-18T04:01:06;5.90;;;2.60;;
20832;SDS011;56075;51.264;7.150;2022-12-18T04:03:39;6.33;;;2.90;;
20832;SDS011;56075;51.264;7.150;2022-12-18T04:06:12;6.20;;;2.43;;
20832;SDS011;56075;51.264;7.150;2022-12-18T04:08:45;8.37;;;2.90;;
20832;SDS011;56075;51.264;7.150;2022-12-18T04:11:21;7.93;;;2.73;;
20832;SDS011;56075;51.264;7.150;2022-12-18T04:13:56;6.93;;;2.57;;
20832;SDS011;56075;51.264;7.150;2022-12-18T04:16:28;8.63;;;2.93;;
20832;SDS011;56075;51.264;7.150;2022-12-18T04:19:04;5.53;;;2.60;;
20832;SDS011;56075;51.264;7.150;2022-12-18T04:21:42;6.53;;;2.40;;
20832;SDS011;56075;51.264;7.150;2022-12-18T04:24:15;8.47;;;3.07;;
20832;SDS011;56075;51.264;7.150;2022-12-18T04:26:56;9.10;;;2.00;;
20832;SDS011;56075;51.264;7.150;2022-12-18T04:29:31;5.27;;;2.50;;
20832;SDS011;56075;51.264;7.150;2022-12-18T04:32:03;5.90;;;2.67;;
20832;SDS011;56075;51.264;7.150;2022-12-18T04:34:36;5.30;;;2.50;;
20832;SDS011;56075;51.264;7.150;2022-12-18T04:37:07;5.37;;;2.40;;
20832;SDS011;56075;51.264;7.150;2022-12-18T04:39:39;8.43;;;2.53;;
20832;SDS011;56075;51.264;7.150;2022-12-18T04:42:18;4.70;;;2.23;;
20832;SDS011;56075;51.264;7.150;2022-12-18T04:44:49;9.03;;;2.53;;
20832;SDS011;56075;51.264;7.150;2022-12-18T04:47:20;6.43;;;2.53;;
20832;SDS011;56075;51.264;7.150;2022-12-18T04:49:52;7.77;;;2.60;;
20832;SDS011;56075;51.264;7.150;2022-12-18T04:52:23;6.97;;;2.43;;
20832;SDS011;56075;51.264;7.150;2022-12-18T04:54:55;9.50;;;2.70;;
20832;SDS011;56075;51.264;7.150;2022-12-18T04:57:26;6.37;;;2.53;;
20832;SDS011;56075;51.264;7.150;2022-12-18T04:59:57;6.07;;;2.33;;
20832;SDS011;56075;51.264;7.150;2022-12-18T05:02:29;5.23;;;2.37;;
20832;SDS011;56075;51.264;7.150;2022-12-18T05:05:00;9.53;;;2.70;;
20832;SDS011;56075;51.264;7.150;2022-12-18T05:07:32;6.23;;;2.50;;
20832;SDS011;56075;51.264;7.150;2022-12-18T05:10:03;5.83;;;2.63;;
20832;SDS011;56075;51.264;7.150;2022-12-18T05:12:35;6.93;;;2.40;;
20832;SDS011;56075;51.264;7.150;2022-12-18T05:15:27;8.83;;;2.53;;
20832;SDS011;56075;51.264;7.150;2022-12-18T05:17:59;6.03;;;2.27;;
20832;SDS011;56075;51.264;7.150;2022-12-18T05:20:30;6.93;;;2.20;;
20832;SDS011;56075;51.264;7.150;2022-12-18T05:23:02;4.53;;;2.03;;
20832;SDS011;56075;51.264;7.150;2022-12-18T05:25:33;5.17;;;2.23;;
20832;SDS011;56075;51.264;7.150;2022-12-18T05:28:05;7.10;;;2.60;;
20832;SDS011;56075;51.264;7.150;2022-12-18T05:30:36;5.30;;;2.17;;
20832;SDS011;56075;51.264;7.150;2022-12-18T05:33:07;6.17;;;2.20;;
20832;SDS011;56075;51.264;7.150;2022-12-18T05:35:39;5.77;;;2.03;;
20832;SDS011;56075;51.264;7.150;2022-12-18T05:38:10;7.73;;;2.60;;
20832;SDS011;56075;51.264;7.150;2022-12-18T05:40:42;5.97;;;2.47;;
20832;SDS011;56075;51.264;7.150;2022-12-18T05:43:14;6.70;;;2.30;;
20832;SDS011;56075;51.264;7.150;2022-12-18T05:45:45;6.30;;;2.17;;
20832;SDS011;56075;51.264;7.150;2022-12-18T05:48:17;5.40;;;2.33;;
20832;SDS011;56075;51.264;7.150;2022-12-18T05:50:49;6.90;;;2.80;;
20832;SDS011;56075;51.264;7.150;2022-12-18T05:53:21;6.00;;;2.60;;
20832;SDS011;56075;51.264;7.150;2022-12-18T05:55:52;6.23;;;2.37;;
20832;SDS011;56075;51.264;7.150;2022-12-18T05:58:24;4.77;;;2.30;;
20832;SDS011;56075;51.264;7.150;2022-12-18T06:00:55;5.23;;;2.30;;
20832;SDS011;56075;51.264;7.150;2022-12-18T06:03:30;7.37;;;2.33;;
20832;SDS011;56075;51.264;7.150;2022-12-18T06:06:01;5.07;;;2.43;;
20832;SDS011;56075;51.264;7.150;2022-12-18T06:08:33;5.40;;;1.60;;
20832;SDS011;56075;51.264;7.150;2022-12-18T06:11:04;6.63;;;2.10;;
20832;SDS011;56075;51.264;7.150;2022-12-18T06:13:38;8.10;;;2.83;;
20832;SDS011;56075;51.264;7.150;2022-12-18T06:16:10;5.37;;;2.10;;
20832;SDS011;56075;51.264;7.150;2022-12-18T06:18:44;5.10;;;1.70;;
20832;SDS011;56075;51.264;7.150;2022-12-18T06:21:15;5.83;;;2.27;;
20832;SDS011;56075;51.264;7.150;2022-12-18T06:23:47;7.87;;;2.30;;
20832;SDS011;56075;51.264;7.150;2022-12-18T06:26:19;5.13;;;1.90;;
20832;SDS011;56075;51.264;7.150;2022-12-18T06:28:50;6.50;;;1.93;;
20832;SDS011;56075;51.264;7.150;2022-12-18T06:31:22;5.73;;;1.70;;
20832;SDS011;56075;51.264;7.150;2022-12-18T06:33:53;5.70;;;2.30;;
20832;SDS011;56075;51.264;7.150;2022-12-18T06:36:25;4.77;;;1.97;;
20832;SDS011;56075;51.264;7.150;2022-12-18T06:38:56;6.53;;;2.40;;
20832;SDS011;56075;51.264;7.150;2022-12-18T06:41:28;7.20;;;2.40;;
20832;SDS011;56075;51.264;7.150;2022-12-18T06:44:00;5.00;;;2.10;;
20832;SDS011;56075;51.264;7.150;2022-12-18T06:46:31;5.73;;;1.90;;
20832;SDS011;56075;51.264;7.150;2022-12-18T06:49:03;5.07;;;2.23;;
20832;SDS011;56075;51.264;7.150;2022-12-18T06:51:35;5.73;;;2.30;;
20832;SDS011;56075;51.264;7.150;2022-12-18T06:54:06;5.97;;;1.87;;
20832;SDS011;56075;51.264;7.150;2022-12-18T06:56:38;5.93;;;2.30;;
20832;SDS011;56075;51.264;7.150;2022-12-18T06:59:09;5.63;;;2.20;;
20832;SDS011;56075;51.264;7.150;2022-12-18T07:01:41;7.87;;;2.43;;
20832;SDS011;56075;51.264;7.150;2022-12-18T07:04:13;7.80;;;3.00;;
20832;SDS011;56075;51.264;7.150;2022-12-18T07:06:45;6.07;;;2.50;;
20832;SDS011;56075;51.264;7.150;2022-12-18T07:09:16;6.00;;;2.43;;
20832;SDS011;56075;51.264;7.150;2022-12-18T07:11:48;6.10;;;2.60;;
20832;SDS011;56075;51.264;7.150;2022-12-18T07:14:19;5.43;;;2.53;;
20832;SDS011;56075;51.264;7.150;2022-12-18T07:16:51;5.30;;;2.60;;
20832;SDS011;56075;51.264;7.150;2022-12-18T07:19:23;5.47;;;2.47;;
20832;SDS011;56075;51.264;7.150;2022-12-18T07:21:54;8.30;;;2.60;;
20832;SDS011;56075;51.264;7.150;2022-12-18T07:24:26;7.83;;;2.87;;
20832;SDS011;56075;51.264;7.150;2022-12-18T07:26:58;6.80;;;2.63;;
20832;SDS011;56075;51.264;7.150;2022-12-18T07:29:29;7.90;;;2.80;;
20832;SDS011;56075;51.264;7.150;2022-12-18T07:32:01;9.97;;;3.10;;
20832;SDS011;56075;51.264;7.150;2022-12-18T07:34:32;7.93;;;3.20;;
20832;SDS011;56075;51.264;7.150;2022-12-18T07:37:04;10.37;;;3.10;;
20832;SDS011;56075;51.264;7.150;2022-12-18T07:39:35;6.73;;;2.50;;
20832;SDS011;56075;51.264;7.150;2022-12-18T07:42:07;8.27;;;2.93;;
20832;SDS011;56075;51.264;7.150;2022-12-18T07:44:57;6.73;;;2.60;;
20832;SDS011;56075;51.264;7.150;2022-12-18T07:47:28;5.10;;;2.17;;
20832;SDS011;56075;51.264;7.150;2022-12-18T07:50:00;6.30;;;2.53;;
20832;SDS011;56075;51.264;7.150;2022-12-18T07:52:31;9.50;;;2.97;;
20832;SDS011;56075;51.264;7.150;2022-12-18T07:55:03;8.40;;;3.20;;
20832;SDS011;56075;51.264;7.150;2022-12-18T07:57:34;8.40;;;2.83;;
20832;SDS011;56075;51.264;7.150;2022-12-18T08:00:06;7.10;;;2.60;;
20832;SDS011;56075;51.264;7.150;2022-12-18T08:02:43;7.40;;;2.53;;
20832;SDS011;56075;51.264;7.150;2022-12-18T08:05:14;7.53;;;2.57;;
20832;SDS011;56075;51.264;7.150;2022-12-18T08:07:46;8.27;;;2.63;;
20832;SDS011;56075;51.264;7.150;2022-12-18T08:10:18;6.23;;;2.30;;
20832;SDS011;56075;51.264;7.150;2022-12-18T08:12:50;7.30;;;2.80;;
20832;SDS011;56075;51.264;7.150;2022-12-18T08:15:21;7.23;;;2.50;;
20832;SDS011;56075;51.264;7.150;2022-12-18T08:17:56;7.40;;;2.43;;
20832;SDS011;56075;51.264;7.150;2022-12-18T08:20:27;7.03;;;2.50;;
20832;SDS011;56075;51.264;7.150;2022-12-18T08:22:59;5.60;;;2.70;;
20832;SDS011;56075;51.264;7.150;2022-12-18T08:25:30;6.60;;;2.70;;
20832;SDS011;56075;51.264;7.150;2022-12-18T08:28:02;5.50;;;2.37;;
20832;SDS011;56075;51.264;7.150;2022-12-18T08:30:35;5.60;;;2.30;;
20832;SDS011;56075;51.264;7.150;2022-12-18T08:33:06;7.43;;;2.47;;
20832;SDS011;56075;51.264;7.150;2022-12-18T08:35:38;5.87;;;2.60;;
20832;SDS011;56075;51.264;7.150;2022-12-18T08:38:09;5.70;;;2.60;;
20832;SDS011;56075;51.264;7.150;2022-12-18T08:40:41;5.40;;;2.13;;
20832;SDS011;56075;51.264;7.150;2022-12-18T08:43:13;8.03;;;2.47;;
20832;SDS011;56075;51.264;7.150;2022-12-18T08:46:03;5.73;;;1.93;;
20832;SDS011;56075;51.264;7.150;2022-12-18T08:48:34;5.33;;;2.67;;
20832;SDS011;56075;51.264;7.150;2022-12-18T08:51:06;7.27;;;2.47;;
20832;SDS011;56075;51.264;7.150;2022-12-18T08:53:40;5.57;;;2.30;;
20832;SDS011;56075;51.264;7.150;2022-12-18T08:56:12;7.43;;;2.27;;
20832;SDS011;56075;51.264;7.150;2022-12-18T08:58:43;6.70;;;2.63;;
20832;SDS011;56075;51.264;7.150;2022-12-18T09:01:15;4.83;;;2.37;;
20832;SDS011;56075;51.264;7.150;2022-12-18T09:03:47;4.93;;;1.87;;
20832;SDS011;56075;51.264;7.150;2022-12-18T09:06:20;14.40;;;4.77;;
20832;SDS011;56075;51.264;7.150;2022-12-18T09:08:52;4.70;;;2.43;;
20832;SDS011;56075;51.264;7.150;2022-12-18T09:11:24;5.37;;;2.17;;
20832;SDS011;56075;51.264;7.150;2022-12-18T09:13:57;5.90;;;1.90;;
20832;SDS011;56075;51.264;7.150;2022-12-18T09:16:29;5.17;;;2.30;;
20832;SDS011;56075;51.264;7.150;2022-12-18T09:19:02;4.73;;;2.40;;
20832;SDS011;56075;51.264;7.150;2022-12-18T09:21:35;7.10;;;2.80;;
20832;SDS011;56075;51.264;7.150;2022-12-18T09:24:08;6.50;;;2.20;;
20832;SDS011;56075;51.264;7.150;2022-12-18T09:26:44;6.80;;;2.70;;
20832;SDS011;56075;51.264;7.150;2022-12-18T09:29:15;4.80;;;1.70;;
20832;SDS011;56075;51.264;7.150;2022-12-18T09:31:47;5.97;;;2.40;;
20832;SDS011;56075;51.264;7.150;2022-12-18T09:34:20;5.47;;;2.37;;
20832;SDS011;56075;51.264;7.150;2022-12-18T09:36:52;8.10;;;2.10;;
20832;SDS011;56075;51.264;7.150;2022-12-18T09:39:24;4.80;;;2.00;;
20832;SDS011;56075;51.264;7.150;2022-12-18T09:41:56;4.40;;;1.90;;
20832;SDS011;56075;51.264;7.150;2022-12-18T09:44:33;10.53;;;2.37;;
20832;SDS011;56075;51.264;7.150;2022-12-18T09:47:11;7.87;;;2.43;;
20832;SDS011;56075;51.264;7.150;2022-12-18T09:49:46;5.63;;;2.00;;
20832;SDS011;56075;51.264;7.150;2022-12-18T09:52:22;3.80;;;1.37;;
20832;SDS011;56075;51.264;7.150;2022-12-18T09:54:57;4.37;;;1.80;;
20832;SDS011;56075;51.264;7.150;2022-12-18T09:57:30;4.37;;;1.93;;
20832;SDS011;56075;51.264;7.150;2022-12-18T10:00:11;5.30;;;2.03;;
20832;SDS011;56075;51.264;7.150;2022-12-18T10:02:47;4.67;;;1.97;;
20832;SDS011;56075;51.264;7.150;2022-12-18T10:05:20;6.05;;;2.63;;
20832;SDS011;56075;51.264;7.150;2022-12-18T10:10:48;5.90;;;2.23;;
20832;SDS011;56075;51.264;7.150;2022-12-18T10:16:42;4.63;;;2.23;;
20832;SDS011;56075;51.264;7.150;2022-12-18T10:21:44;6.03;;;2.60;;
20832;SDS011;56075;51.264;7.150;2022-12-18T10:26:51;5.90;;;2.70;;
20832;SDS011;56075;51.264;7.150;2022-12-18T10:29:24;5.97;;;2.57;;
20832;SDS011;56075;51.264;7.150;2022-12-18T10:31:56;5.40;;;2.67;;
20832;SDS011;56075;51.264;7.150;2022-12-18T10:34:27;5.87;;;2.53;;
20832;SDS011;56075;51.264;7.150;2022-12-18T10:37:00;6.13;;;2.33;;
20832;SDS011;56075;51.264;7.150;2022-12-18T10:39:32;6.57;;;2.53;;
20832;SDS011;56075;51.264;7.150;2022-12-18T10:42:37;6.63;;;2.40;;
20832;SDS011;56075;51.264;7.150;2022-12-18T10:45:02;5.80;;;2.20;;
20832;SDS011;56075;51.264;7.150;2022-12-18T10:47:34;4.63;;;2.30;;
20832;SDS011;56075;51.264;7.150;2022-12-18T10:50:11;7.33;;;2.60;;
20832;SDS011;56075;51.264;7.150;2022-12-18T10:52:54;7.87;;;2.60;;
20832;SDS011;56075;51.264;7.150;2022-12-18T10:55:33;6.17;;;2.50;;
20832;SDS011;56075;51.264;7.150;2022-12-18T11:06:14;6.27;;;2.40;;
20832;SDS011;56075;51.264;7.150;2022-12-18T11:09:00;7.77;;;2.83;;
20832;SDS011;56075;51.264;7.150;2022-12-18T11:11:32;6.67;;;2.60;;
20832;SDS011;56075;51.264;7.150;2022-12-18T11:14:05;5.67;;;2.83;;
20832;SDS011;56075;51.264;7.150;2022-12-18T11:16:42;5.47;;;2.50;;
20832;SDS011;56075;51.264;7.150;2022-12-18T11:22:17;6.50;;;2.70;;
20832;SDS011;56075;51.264;7.150;2022-12-18T11:27:31;10.67;;;2.73;;
20832;SDS011;56075;51.264;7.150;2022-12-18T11:30:13;12.43;;;3.37;;
20832;SDS011;56075;51.264;7.150;2022-12-18T11:33:04;10.80;;;3.00;;
20832;SDS011;56075;51.264;7.150;2022-12-18T11:35:51;5.53;;;2.40;;
20832;SDS011;56075;51.264;7.150;2022-12-18T11:41:00;7.73;;;2.20;;
20832;SDS011;56075;51.264;7.150;2022-12-18T11:43:36;8.13;;;2.50;;
20832;SDS011;56075;51.264;7.150;2022-12-18T11:46:23;5.97;;;2.53;;
20832;SDS011;56075;51.264;7.150;2022-12-18T11:48:58;6.10;;;2.80;;
20832;SDS011;56075;51.264;7.150;2022-12-18T11:51:38;7.50;;;2.70;;
20832;SDS011;56075;51.264;7.150;2022-12-18T11:54:13;7.00;;;2.73;;
20832;SDS011;56075;51.264;7.150;2022-12-18T12:02:52;5.53;;;2.57;;
20832;SDS011;56075;51.264;7.150;2022-12-18T12:07:35;6.43;;;3.03;;
20832;SDS011;56075;51.264;7.150;2022-12-18T12:10:20;7.77;;;3.30;;
20832;SDS011;56075;51.264;7.150;2022-12-18T12:13:03;7.47;;;3.07;;
20832;SDS011;56075;51.264;7.150;2022-12-18T12:23:35;7.47;;;3.07;;
20832;SDS011;56075;51.264;7.150;2022-12-18T12:34:18;11.63;;;3.80;;
20832;SDS011;56075;51.264;7.150;2022-12-18T12:37:04;12.33;;;3.67;;
20832;SDS011;56075;51.264;7.150;2022-12-18T12:39:45;6.43;;;2.87;;
20832;SDS011;56075;51.264;7.150;2022-12-18T12:45:15;8.47;;;3.80;;
20832;SDS011;56075;51.264;7.150;2022-12-18T12:47:48;10.33;;;3.80;;
20832;SDS011;56075;51.264;7.150;2022-12-18T12:50:21;8.03;;;3.10;;
20832;SDS011;56075;51.264;7.150;2022-12-18T12:52:54;9.30;;;3.80;;
20832;SDS011;56075;51.264;7.150;2022-12-18T12:55:27;7.70;;;3.30;;
20832;SDS011;56075;51.264;7.150;2022-12-18T12:58:01;11.37;;;4.40;;
20832;SDS011;56075;51.264;7.150;2022-12-18T13:00:39;9.97;;;4.30;;
20832;SDS011;56075;51.264;7.150;2022-12-18T13:06:07;13.40;;;5.73;;
20832;SDS011;56075;51.264;7.150;2022-12-18T13:08:56;10.87;;;4.40;;
20832;SDS011;56075;51.264;7.150;2022-12-18T13:11:30;11.70;;;4.60;;
20832;SDS011;56075;51.264;7.150;2022-12-18T13:14:38;11.23;;;4.50;;
20832;SDS011;56075;51.264;7.150;2022-12-18T13:20:08;11.87;;;4.30;;
20832;SDS011;56075;51.264;7.150;2022-12-18T13:25:32;11.07;;;4.53;;
20832;SDS011;56075;51.264;7.150;2022-12-18T13:28:05;10.73;;;4.30;;
20832;SDS011;56075;51.264;7.150;2022-12-18T13:30:46;15.07;;;5.07;;
20832;SDS011;56075;51.264;7.150;2022-12-18T13:35:51;11.10;;;4.10;;
20832;SDS011;56075;51.264;7.150;2022-12-18T13:40:56;14.27;;;5.07;;
20832;SDS011;56075;51.264;7.150;2022-12-18T13:43:29;11.53;;;4.73;;
20832;SDS011;56075;51.264;7.150;2022-12-18T13:46:02;15.80;;;5.17;;
20832;SDS011;56075;51.264;7.150;2022-12-18T13:48:36;11.13;;;5.20;;
20832;SDS011;56075;51.264;7.150;2022-12-18T13:51:09;12.07;;;5.10;;
20832;SDS011;56075;51.264;7.150;2022-12-18T13:53:46;17.03;;;5.20;;
20832;SDS011;56075;51.264;7.150;2022-12-18T13:56:23;13.33;;;5.63;;
20832;SDS011;56075;51.264;7.150;2022-12-18T14:01:43;14.43;;;5.07;;
20832;SDS011;56075;51.264;7.150;2022-12-18T14:07:06;17.67;;;6.00;;
20832;SDS011;56075;51.264;7.150;2022-12-18T14:09:40;16.17;;;5.77;;
20832;SDS011;56075;51.264;7.150;2022-12-18T14:12:31;16.10;;;6.20;;
20832;SDS011;56075;51.264;7.150;2022-12-18T14:15:34;13.33;;;5.33;;
20832;SDS011;56075;51.264;7.150;2022-12-18T14:18:26;12.37;;;6.00;;
20832;SDS011;56075;51.264;7.150;2022-12-18T14:20:58;12.73;;;5.43;;
20832;SDS011;56075;51.264;7.150;2022-12-18T14:23:32;16.67;;;6.30;;
20832;SDS011;56075;51.264;7.150;2022-12-18T14:28:57;17.30;;;6.10;;
20832;SDS011;56075;51.264;7.150;2022-12-18T14:31:31;18.77;;;6.30;;
20832;SDS011;56075;51.264;7.150;2022-12-18T14:34:08;13.57;;;5.50;;
20832;SDS011;56075;51.264;7.150;2022-12-18T14:36:54;15.73;;;5.57;;
20832;SDS011;56075;51.264;7.150;2022-12-18T14:39:27;14.13;;;6.00;;
20832;SDS011;56075;51.264;7.150;2022-12-18T14:42:05;14.57;;;5.53;;
20832;SDS011;56075;51.264;7.150;2022-12-18T14:44:40;17.23;;;6.73;;
20832;SDS011;56075;51.264;7.150;2022-12-18T14:47:15;17.70;;;6.30;;
20832;SDS011;56075;51.264;7.150;2022-12-18T14:49:47;15.67;;;5.27;;
20832;SDS011;56075;51.264;7.150;2022-12-18T14:52:21;15.43;;;6.13;;
20832;SDS011;56075;51.264;7.150;2022-12-18T14:54:54;16.87;;;6.13;;
20832;SDS011;56075;51.264;7.150;2022-12-18T14:57:27;16.50;;;6.77;;
20832;SDS011;56075;51.264;7.150;2022-12-18T15:00:04;15.93;;;6.37;;
20832;SDS011;56075;51.264;7.150;2022-12-18T15:02:36;16.23;;;6.43;;
20832;SDS011;56075;51.264;7.150;2022-12-18T15:07:45;21.57;;;6.87;;
20832;SDS011;56075;51.264;7.150;2022-12-18T15:23:24;18.07;;;6.70;;
20832;SDS011;56075;51.264;7.150;2022-12-18T15:33:35;21.63;;;7.87;;
20832;SDS011;56075;51.264;7.150;2022-12-18T15:36:11;20.43;;;6.90;;
20832;SDS011;56075;51.264;7.150;2022-12-18T15:38:46;20.93;;;7.30;;
20832;SDS011;56075;51.264;7.150;2022-12-18T15:41:18;15.83;;;6.23;;
20832;SDS011;56075;51.264;7.150;2022-12-18T15:43:51;13.57;;;5.87;;
20832;SDS011;56075;51.264;7.150;2022-12-18T15:46:23;20.40;;;8.03;;
20832;SDS011;56075;51.264;7.150;2022-12-18T15:48:55;19.77;;;7.87;;
20832;SDS011;56075;51.264;7.150;2022-12-18T15:53:59;17.30;;;6.20;;
20832;SDS011;56075;51.264;7.150;2022-12-18T15:56:32;19.20;;;7.57;;
20832;SDS011;56075;51.264;7.150;2022-12-18T15:59:22;17.27;;;7.33;;
20832;SDS011;56075;51.264;7.150;2022-12-18T16:01:54;16.00;;;6.30;;
20832;SDS011;56075;51.264;7.150;2022-12-18T16:04:25;17.13;;;6.13;;
20832;SDS011;56075;51.264;7.150;2022-12-18T16:06:57;22.30;;;7.57;;
20832;SDS011;56075;51.264;7.150;2022-12-18T16:09:29;20.40;;;7.47;;
20832;SDS011;56075;51.264;7.150;2022-12-18T16:12:00;18.50;;;7.23;;
20832;SDS011;56075;51.264;7.150;2022-12-18T16:14:32;20.93;;;7.63;;
20832;SDS011;56075;51.264;7.150;2022-12-18T16:17:05;22.00;;;7.63;;
20832;SDS011;56075;51.264;7.150;2022-12-18T16:19:37;21.20;;;8.13;;
20832;SDS011;56075;51.264;7.150;2022-12-18T16:22:15;23.23;;;8.20;;
20832;SDS011;56075;51.264;7.150;2022-12-18T16:24:49;19.73;;;7.23;;
20832;SDS011;56075;51.264;7.150;2022-12-18T16:27:21;21.57;;;7.80;;
20832;SDS011;56075;51.264;7.150;2022-12-18T16:29:53;18.83;;;7.87;;
20832;SDS011;56075;51.264;7.150;2022-12-18T16:32:24;17.37;;;7.57;;
20832;SDS011;56075;51.264;7.150;2022-12-18T16:34:59;21.97;;;8.20;;
20832;SDS011;56075;51.264;7.150;2022-12-18T16:37:31;22.47;;;8.10;;
20832;SDS011;56075;51.264;7.150;2022-12-18T16:40:03;16.27;;;6.40;;
20832;SDS011;56075;51.264;7.150;2022-12-18T16:42:38;21.43;;;7.47;;
20832;SDS011;56075;51.264;7.150;2022-12-18T16:45:11;23.70;;;8.90;;
20832;SDS011;56075;51.264;7.150;2022-12-18T16:47:43;21.67;;;8.17;;
20832;SDS011;56075;51.264;7.150;2022-12-18T16:50:14;23.73;;;9.30;;
20832;SDS011;56075;51.264;7.150;2022-12-18T16:52:46;22.77;;;8.63;;
20832;SDS011;56075;51.264;7.150;2022-12-18T16:55:19;21.43;;;9.20;;
20832;SDS011;56075;51.264;7.150;2022-12-18T16:57:50;25.73;;;9.00;;
20832;SDS011;56075;51.264;7.150;2022-12-18T17:00:22;34.83;;;11.47;;
20832;SDS011;56075;51.264;7.150;2022-12-18T17:02:53;26.27;;;9.37;;
20832;SDS011;56075;51.264;7.150;2022-12-18T17:05:28;21.33;;;8.50;;
20832;SDS011;56075;51.264;7.150;2022-12-18T17:08:00;26.73;;;9.87;;
20832;SDS011;56075;51.264;7.150;2022-12-18T17:10:33;27.93;;;9.10;;
20832;SDS011;56075;51.264;7.150;2022-12-18T17:13:05;25.87;;;9.23;;
20832;SDS011;56075;51.264;7.150;2022-12-18T17:15:36;27.37;;;10.07;;
20832;SDS011;56075;51.264;7.150;2022-12-18T17:18:08;21.00;;;7.77;;
20832;SDS011;56075;51.264;7.150;2022-12-18T17:20:40;24.73;;;9.60;;
20832;SDS011;56075;51.264;7.150;2022-12-18T17:23:12;23.07;;;7.93;;
20832;SDS011;56075;51.264;7.150;2022-12-18T17:25:44;24.23;;;9.63;;
20832;SDS011;56075;51.264;7.150;2022-12-18T17:28:15;27.03;;;9.50;;
20832;SDS011;56075;51.264;7.150;2022-12-18T17:30:47;23.80;;;8.63;;
20832;SDS011;56075;51.264;7.150;2022-12-18T17:33:18;24.57;;;9.40;;
20832;SDS011;56075;51.264;7.150;2022-12-18T17:35:50;27.23;;;10.60;;
20832;SDS011;56075;51.264;7.150;2022-12-18T17:38:22;26.63;;;9.50;;
20832;SDS011;56075;51.264;7.150;2022-12-18T17:41:00;28.63;;;10.00;;